Wabaningo, Michigan
Current Conditions -  °F | °C
As of 8:55 AM on Wednesday 26 Nov 2014 (Local Time) from KMKG Reporting Station
Haze Haze  
Wind Chill: 21°   Ceiling: 3100
Heat Index: 29°   Visibility: 6mi
Dew Point: 22°   Wind: 8mph
Humidity: 75%   Direction: 120°ESE
Pressure: 30.16"   Gusts: NA
Location:  43.37°N, 86.42°W
Report Text: KMKG 261355Z 12007KT 6SM HZ OVC031 M02/M06 A3016 RMK AO2 SLP222 T10171056
Loading
Personal Weather Stations






























Interactive Weather Map New forecast layout! Learn more

10-Day Weather Forecast

Advertisements
Track Severe Weather on mobile